createdAt,value
2023-05-31T00:01:07.743Z,58.80
2023-05-31T00:03:35.248Z,58.90
2023-05-31T00:06:02.559Z,59.10
2023-05-31T00:08:29.278Z,59.20
2023-05-31T00:10:56.062Z,59.50
2023-05-31T00:13:22.973Z,59.70
2023-05-31T00:15:49.730Z,60.10
2023-05-31T00:18:16.599Z,60.10
2023-05-31T00:20:43.396Z,60.30
2023-05-31T00:23:10.237Z,60.50
2023-05-31T00:25:37.078Z,60.60
2023-05-31T00:28:04.056Z,60.50
2023-05-31T00:30:30.884Z,60.80
2023-05-31T00:32:57.718Z,60.90
2023-05-31T00:35:24.493Z,60.80
2023-05-31T00:37:51.312Z,60.80
2023-05-31T00:40:18.116Z,60.70
2023-05-31T00:42:44.957Z,60.70
2023-05-31T00:45:12.873Z,60.80
2023-05-31T00:47:40.703Z,60.50
2023-05-31T00:50:08.408Z,61.00
2023-05-31T00:52:35.705Z,60.90
2023-05-31T00:55:03.660Z,61.20
2023-05-31T00:57:31.163Z,61.30
2023-05-31T01:04:15.311Z,61.60
2023-05-31T01:07:01.815Z,61.60
2023-05-31T01:09:32.944Z,60.40
2023-05-31T01:13:33.296Z,60.40
2023-05-31T01:29:39.924Z,60.30
2023-05-31T01:32:09.704Z,60.20
2023-05-31T01:34:39.360Z,59.90
2023-05-31T01:37:06.639Z,59.90
2023-05-31T01:39:33.658Z,60.00
2023-05-31T01:42:02.267Z,60.00
2023-05-31T01:44:33.303Z,60.10
2023-05-31T01:47:00.815Z,60.10
2023-05-31T01:49:28.207Z,59.90
2023-05-31T01:51:55.832Z,60.40
2023-05-31T01:54:23.030Z,59.70
2023-05-31T01:56:51.011Z,60.00
2023-05-31T01:59:18.342Z,60.00
2023-05-31T02:01:46.124Z,59.90
2023-05-31T02:04:13.213Z,59.80
2023-05-31T02:06:40.168Z,59.60
2023-05-31T02:09:08.051Z,60.00
2023-05-31T02:11:35.142Z,59.90
2023-05-31T02:14:02.169Z,60.20
2023-05-31T02:16:29.118Z,59.80
2023-05-31T02:18:57.383Z,60.40
2023-05-31T02:21:24.418Z,59.90
2023-05-31T02:23:51.500Z,60.00
2023-05-31T02:26:18.813Z,60.40
2023-05-31T02:28:46.081Z,60.40
2023-05-31T02:31:13.147Z,59.90
2023-05-31T02:33:42.942Z,59.60
2023-05-31T02:36:11.122Z,59.80
2023-05-31T02:38:38.854Z,60.10
2023-05-31T02:41:05.969Z,59.90
2023-05-31T02:43:33.070Z,59.90
2023-05-31T02:46:02.963Z,60.40
2023-05-31T02:48:31.344Z,60.10
2023-05-31T02:50:59.528Z,60.40
2023-05-31T02:53:41.881Z,60.10
2023-05-31T02:56:16.069Z,60.00
2023-05-31T02:59:01.762Z,60.20
2023-05-31T03:01:28.764Z,60.20
2023-05-31T03:04:07.892Z,60.30
2023-05-31T03:06:37.524Z,60.20
2023-05-31T03:09:04.769Z,60.30
2023-05-31T03:11:33.955Z,60.40
2023-05-31T03:14:01.154Z,60.10
2023-05-31T03:16:42.945Z,59.80
2023-05-31T03:19:13.604Z,60.00
2023-05-31T03:21:42.444Z,60.10
2023-05-31T03:24:09.492Z,60.10
2023-05-31T03:26:37.401Z,60.20
2023-05-31T03:29:04.508Z,60.40
2023-05-31T03:31:34.619Z,60.60
2023-05-31T03:34:02.185Z,60.40
2023-05-31T03:36:29.306Z,60.90
2023-05-31T03:38:58.420Z,60.80
2023-05-31T03:41:25.389Z,60.90
2023-05-31T03:43:53.201Z,60.80
2023-05-31T03:46:20.727Z,60.80
2023-05-31T03:48:49.005Z,60.90
2023-05-31T03:51:18.623Z,60.70
2023-05-31T03:53:46.110Z,60.70
2023-05-31T03:56:13.259Z,60.70
2023-05-31T03:58:41.448Z,60.70
2023-05-31T04:01:10.352Z,60.90
2023-05-31T04:03:39.340Z,61.30
2023-05-31T04:06:08.600Z,61.80
2023-05-31T04:08:36.576Z,61.80
2023-05-31T04:11:04.236Z,61.90
2023-05-31T04:13:31.415Z,61.80
2023-05-31T04:15:58.730Z,62.60
2023-05-31T04:18:25.712Z,62.40
2023-05-31T04:20:52.999Z,62.40
2023-05-31T04:23:20.491Z,62.80
2023-05-31T04:25:48.998Z,62.60
2023-05-31T04:28:16.538Z,63.20
2023-05-31T04:30:45.671Z,63.00
2023-05-31T04:33:13.745Z,62.60
2023-05-31T04:35:41.627Z,62.10
2023-05-31T04:38:09.297Z,62.40
2023-05-31T04:40:36.360Z,61.90
2023-05-31T04:43:04.040Z,61.20
2023-05-31T04:45:33.785Z,60.70
2023-05-31T04:48:01.996Z,60.50
2023-05-31T04:50:31.034Z,60.30
2023-05-31T04:52:59.102Z,60.30
2023-05-31T04:55:27.412Z,60.00
2023-05-31T04:57:55.564Z,60.10
2023-05-31T05:00:22.571Z,59.90
2023-05-31T05:03:11.099Z,59.80
2023-05-31T05:05:38.920Z,59.90
2023-05-31T05:08:06.278Z,59.80
2023-05-31T05:10:33.305Z,60.00
2023-05-31T05:13:00.466Z,59.60
2023-05-31T05:15:27.538Z,59.60
2023-05-31T05:17:54.614Z,59.90
2023-05-31T05:20:22.517Z,59.50
2023-05-31T05:22:55.101Z,59.20
2023-05-31T05:25:23.648Z,59.10
2023-05-31T05:27:51.297Z,59.00
2023-05-31T05:30:19.504Z,59.00
2023-05-31T05:32:48.474Z,58.70
2023-05-31T05:35:16.068Z,59.00
2023-05-31T05:37:43.135Z,59.20
2023-05-31T05:40:10.795Z,59.50
2023-05-31T05:42:37.906Z,59.10
2023-05-31T05:45:08.138Z,59.40
2023-05-31T05:47:36.926Z,59.80
2023-05-31T05:50:04.310Z,59.10
2023-05-31T05:52:31.388Z,58.50
2023-05-31T05:54:58.646Z,59.00
2023-05-31T05:57:26.285Z,58.80
2023-05-31T06:00:00.131Z,58.70
2023-05-31T06:02:28.337Z,57.90
2023-05-31T06:04:58.550Z,57.80
2023-05-31T06:07:25.824Z,57.80
2023-05-31T06:09:53.994Z,58.20
2023-05-31T06:12:21.986Z,58.10
2023-05-31T06:14:49.849Z,58.00
2023-05-31T06:17:16.947Z,57.70
2023-05-31T06:19:43.952Z,57.30
2023-05-31T06:22:11.105Z,57.50
2023-05-31T06:24:38.212Z,57.50
2023-05-31T06:27:06.237Z,57.20
2023-05-31T06:29:37.319Z,56.90
2023-05-31T06:32:26.303Z,57.20
2023-05-31T06:34:54.102Z,57.10
2023-05-31T06:37:22.944Z,56.90
2023-05-31T06:39:50.834Z,56.80
2023-05-31T06:42:18.481Z,56.40
2023-05-31T06:45:00.565Z,56.40
2023-05-31T06:47:47.783Z,57.00
2023-05-31T06:50:17.733Z,56.40
2023-05-31T06:52:47.246Z,56.00
2023-05-31T06:55:43.250Z,57.00
2023-05-31T06:58:16.651Z,56.20
2023-05-31T07:00:46.870Z,56.40
2023-05-31T07:03:14.463Z,56.20
2023-05-31T07:05:44.987Z,56.00
2023-05-31T07:08:11.955Z,56.10
2023-05-31T07:10:58.911Z,55.50
2023-05-31T07:13:25.889Z,55.80
2023-05-31T07:15:52.696Z,54.90
2023-05-31T07:18:19.470Z,54.90
2023-05-31T07:20:47.543Z,54.50
2023-05-31T07:23:14.270Z,54.10
2023-05-31T07:25:42.504Z,54.20
2023-05-31T07:28:09.873Z,54.50
2023-05-31T07:30:36.618Z,54.40
2023-05-31T07:33:03.541Z,54.70
2023-05-31T07:35:30.388Z,52.80
2023-05-31T07:37:57.165Z,53.00
2023-05-31T07:40:24.013Z,53.20
2023-05-31T07:42:50.736Z,52.50
2023-05-31T07:45:17.514Z,52.00
2023-05-31T07:47:44.252Z,52.60
2023-05-31T07:50:11.058Z,52.00
2023-05-31T07:52:37.812Z,51.60
2023-05-31T07:55:05.418Z,51.90
2023-05-31T07:57:34.174Z,51.00
2023-05-31T08:00:00.907Z,51.10
2023-05-31T08:02:27.647Z,51.50
2023-05-31T08:04:55.655Z,51.40
2023-05-31T08:07:22.408Z,52.60
2023-05-31T08:09:49.128Z,52.10
2023-05-31T08:12:16.144Z,50.80
2023-05-31T08:14:42.866Z,50.10
2023-05-31T08:17:09.721Z,50.60
2023-05-31T08:19:36.522Z,50.20
2023-05-31T08:22:03.397Z,48.90
2023-05-31T08:24:30.121Z,48.60
2023-05-31T08:26:57.880Z,48.90
2023-05-31T08:29:24.651Z,49.60
2023-05-31T08:31:51.380Z,48.90
2023-05-31T08:34:19.295Z,49.60
2023-05-31T08:36:46.207Z,48.90
2023-05-31T08:39:13.029Z,48.70
2023-05-31T08:41:46.805Z,48.10
2023-05-31T08:44:15.323Z,47.50
2023-05-31T08:46:44.762Z,48.20
2023-05-31T08:49:13.344Z,48.10
2023-05-31T08:51:41.874Z,47.20
2023-05-31T08:54:10.944Z,46.30
2023-05-31T08:56:41.209Z,46.90
2023-05-31T08:59:11.416Z,46.40
2023-05-31T09:01:39.065Z,45.90
2023-05-31T09:04:07.209Z,46.20
2023-05-31T09:06:35.236Z,45.80
2023-05-31T09:09:02.791Z,46.40
2023-05-31T09:11:29.665Z,44.70
2023-05-31T09:13:56.383Z,45.50
2023-05-31T09:16:26.767Z,44.80
2023-05-31T09:19:05.989Z,43.40
2023-05-31T09:21:44.565Z,43.30
2023-05-31T09:24:13.484Z,44.50
2023-05-31T09:26:50.418Z,43.50
2023-05-31T09:29:18.951Z,44.50
2023-05-31T09:31:46.638Z,43.50
2023-05-31T09:34:24.982Z,43.60
2023-05-31T09:36:52.623Z,43.50
2023-05-31T09:39:21.176Z,44.20
2023-05-31T09:41:51.877Z,44.10
2023-05-31T09:44:18.833Z,43.70
2023-05-31T09:46:48.758Z,44.00
2023-05-31T09:49:15.622Z,44.10
2023-05-31T09:51:51.756Z,43.70
2023-05-31T09:54:18.848Z,43.20
2023-05-31T09:56:45.832Z,41.90
2023-05-31T09:59:13.152Z,42.30
2023-05-31T10:01:40.239Z,42.60
2023-05-31T10:04:07.401Z,42.90
2023-05-31T10:06:37.080Z,42.40
2023-05-31T10:09:08.554Z,42.60
2023-05-31T10:11:37.162Z,42.60
2023-05-31T10:14:21.860Z,40.40
2023-05-31T10:16:55.110Z,40.80
2023-05-31T10:19:28.581Z,41.30
2023-05-31T10:21:59.054Z,42.50
2023-05-31T10:24:35.298Z,41.50
2023-05-31T10:27:18.644Z,41.00
2023-05-31T10:29:49.881Z,41.40
2023-05-31T10:32:25.344Z,41.60
2023-05-31T10:34:53.947Z,41.30
2023-05-31T10:37:22.303Z,40.90
2023-05-31T10:40:07.515Z,40.20
2023-05-31T10:42:41.770Z,41.20
2023-05-31T10:45:34.264Z,40.50
2023-05-31T10:48:16.386Z,40.50
2023-05-31T10:50:53.494Z,40.70
2023-05-31T10:53:20.354Z,40.70
2023-05-31T10:55:48.423Z,40.20
2023-05-31T10:58:29.708Z,40.70
2023-05-31T11:00:58.319Z,40.50
2023-05-31T11:03:27.545Z,40.60
2023-05-31T11:06:00.635Z,40.30
2023-05-31T11:08:28.820Z,39.80
2023-05-31T11:11:33.598Z,39.90
2023-05-31T11:14:02.079Z,40.40
2023-05-31T11:16:32.438Z,40.50
2023-05-31T11:19:07.153Z,40.10
2023-05-31T11:21:51.604Z,40.60
2023-05-31T11:24:51.714Z,40.00
2023-05-31T11:27:20.425Z,39.80
2023-05-31T11:29:53.370Z,39.50
2023-05-31T11:32:36.108Z,40.10
2023-05-31T11:35:12.208Z,39.90
2023-05-31T11:37:39.956Z,38.90
2023-05-31T11:40:11.754Z,38.50
2023-05-31T11:42:40.757Z,38.60
2023-05-31T11:45:09.719Z,39.60
2023-05-31T11:47:45.537Z,39.30
2023-05-31T11:50:19.834Z,39.00
2023-05-31T11:52:46.859Z,38.30
2023-05-31T11:55:19.178Z,39.00
2023-05-31T11:57:47.960Z,39.20
2023-05-31T12:00:16.449Z,38.60
2023-05-31T12:02:45.876Z,38.40
2023-05-31T12:05:13.837Z,38.60
2023-05-31T12:07:40.881Z,38.20
2023-05-31T12:10:08.736Z,37.40
2023-05-31T12:12:36.902Z,38.00
2023-05-31T12:15:04.500Z,38.30
2023-05-31T12:17:32.181Z,38.00
2023-05-31T12:19:59.803Z,37.70
2023-05-31T12:22:27.925Z,36.70
2023-05-31T12:24:56.158Z,37.50
2023-05-31T12:27:33.499Z,37.10
2023-05-31T12:30:18.828Z,37.40
2023-05-31T12:32:46.847Z,36.20
2023-05-31T12:35:14.300Z,36.50
2023-05-31T12:37:41.276Z,37.30
2023-05-31T12:40:13.068Z,35.70
2023-05-31T12:42:40.097Z,36.20
2023-05-31T12:45:09.384Z,36.90
2023-05-31T12:47:37.199Z,36.50
2023-05-31T12:50:08.350Z,36.50
2023-05-31T12:52:40.101Z,35.90
2023-05-31T12:55:08.829Z,35.30
2023-05-31T12:57:38.321Z,35.90
2023-05-31T13:00:10.728Z,35.30
2023-05-31T13:02:41.633Z,35.50
2023-05-31T13:05:09.337Z,35.20
2023-05-31T13:07:36.208Z,35.50
2023-05-31T13:10:12.082Z,34.80
2023-05-31T13:12:39.551Z,34.80
2023-05-31T13:15:07.890Z,34.70
2023-05-31T13:17:34.847Z,35.60
2023-05-31T13:20:14.896Z,34.60
2023-05-31T13:22:42.536Z,35.20
2023-05-31T13:25:10.199Z,35.00
2023-05-31T13:27:37.199Z,33.80
2023-05-31T13:30:04.408Z,34.60
2023-05-31T13:32:31.892Z,35.30
2023-05-31T13:35:00.972Z,34.10
2023-05-31T13:37:28.492Z,34.90
2023-05-31T13:39:56.584Z,33.50
2023-05-31T13:42:24.066Z,34.10
2023-05-31T13:44:50.824Z,33.90
2023-05-31T13:47:17.852Z,33.70
2023-05-31T13:49:44.630Z,33.90
2023-05-31T13:52:14.528Z,32.60
2023-05-31T13:54:41.743Z,33.00
2023-05-31T13:57:08.594Z,33.40
2023-05-31T13:59:35.301Z,33.20
2023-05-31T14:02:02.166Z,33.60
2023-05-31T14:04:31.331Z,33.20
2023-05-31T14:06:58.534Z,33.30
2023-05-31T14:09:25.861Z,32.80
2023-05-31T14:11:53.021Z,32.90
2023-05-31T14:14:19.862Z,32.90
2023-05-31T14:16:46.635Z,32.50
2023-05-31T14:19:13.418Z,33.40
2023-05-31T14:21:43.561Z,33.20
2023-05-31T14:24:11.002Z,33.20
2023-05-31T14:26:38.736Z,33.00
2023-05-31T14:29:05.594Z,32.10
2023-05-31T14:31:32.520Z,32.40
2023-05-31T14:33:59.536Z,32.00
2023-05-31T14:36:26.859Z,32.10
2023-05-31T14:38:54.585Z,32.50
2023-05-31T14:41:21.491Z,32.60
2023-05-31T14:43:49.343Z,32.10
2023-05-31T14:46:16.199Z,32.40
2023-05-31T14:48:43.058Z,32.00
2023-05-31T14:51:09.800Z,32.40
2023-05-31T14:53:36.521Z,32.50
2023-05-31T14:58:34.349Z,31.90
2023-05-31T15:01:01.303Z,31.70
2023-05-31T15:03:28.414Z,32.70
2023-05-31T15:05:55.296Z,32.00
2023-05-31T15:08:22.758Z,32.30
2023-05-31T15:10:52.614Z,32.30
2023-05-31T15:13:19.356Z,33.10
2023-05-31T15:15:46.070Z,32.90
2023-05-31T15:18:14.269Z,31.80
2023-05-31T15:20:41.112Z,32.50
2023-05-31T15:23:07.979Z,32.80
2023-05-31T15:25:34.724Z,32.60
2023-05-31T15:28:01.452Z,32.10
2023-05-31T15:30:28.158Z,32.60
2023-05-31T15:32:54.960Z,31.90
2023-05-31T15:35:21.915Z,31.80
2023-05-31T15:37:48.659Z,31.50
2023-05-31T15:40:15.625Z,31.70
2023-05-31T15:42:42.344Z,31.60
2023-05-31T15:45:09.553Z,31.60
2023-05-31T15:47:36.390Z,32.30
2023-05-31T15:50:03.857Z,31.40
2023-05-31T15:52:30.895Z,31.30
2023-05-31T15:54:57.635Z,30.90
2023-05-31T15:57:24.364Z,31.20
2023-05-31T15:59:51.177Z,31.50
2023-05-31T16:02:17.944Z,30.60
2023-05-31T16:04:45.165Z,30.80
2023-05-31T16:07:11.882Z,29.90
2023-05-31T16:09:38.600Z,30.40
2023-05-31T16:12:06.901Z,30.10
2023-05-31T16:14:33.857Z,29.30
2023-05-31T16:17:01.661Z,29.40
2023-05-31T16:19:29.746Z,27.80
2023-05-31T16:21:56.607Z,27.70
2023-05-31T16:24:23.583Z,27.00
2023-05-31T16:26:51.605Z,27.10
2023-05-31T16:29:18.785Z,27.30
2023-05-31T16:31:45.620Z,26.30
2023-05-31T16:34:12.402Z,26.20
2023-05-31T16:36:39.315Z,25.50
2023-05-31T16:39:08.590Z,25.10
2023-05-31T16:41:35.773Z,25.30
2023-05-31T16:44:03.151Z,25.60
2023-05-31T16:46:30.147Z,25.80
2023-05-31T16:48:58.685Z,25.90
2023-05-31T16:51:26.170Z,25.40
2023-05-31T16:53:53.748Z,25.50
2023-05-31T16:56:20.818Z,25.50
2023-05-31T16:58:47.705Z,25.10
2023-05-31T17:01:14.477Z,25.40
2023-05-31T17:03:41.501Z,25.50
2023-05-31T17:06:08.309Z,25.80
2023-05-31T17:08:35.065Z,25.90
2023-05-31T17:11:01.850Z,25.90
2023-05-31T17:13:28.617Z,25.60
2023-05-31T17:15:55.386Z,25.90
2023-05-31T17:18:22.206Z,26.00
2023-05-31T17:20:49.642Z,26.40
2023-05-31T17:23:16.375Z,26.10
2023-05-31T17:25:59.047Z,26.10
2023-05-31T17:28:25.864Z,26.40
2023-05-31T17:30:52.633Z,27.20
2023-05-31T17:33:19.348Z,27.00
2023-05-31T17:35:46.201Z,27.40
2023-05-31T17:38:13.597Z,27.00
2023-05-31T17:40:40.337Z,26.80
2023-05-31T17:43:07.203Z,27.20
2023-05-31T17:45:33.945Z,27.20
2023-05-31T17:48:00.857Z,26.70
2023-05-31T17:50:27.635Z,27.20
2023-05-31T17:52:54.413Z,27.90
2023-05-31T17:55:23.101Z,27.60
2023-05-31T17:57:50.921Z,27.30
2023-05-31T18:00:17.854Z,27.40
2023-05-31T18:02:44.701Z,27.60
2023-05-31T18:05:12.214Z,27.60
2023-05-31T18:07:39.015Z,27.60
2023-05-31T18:10:06.382Z,27.90
2023-05-31T18:12:33.171Z,28.10
2023-05-31T18:15:00.235Z,27.70
2023-05-31T18:17:27.340Z,28.30
2023-05-31T18:19:54.637Z,28.20
2023-05-31T18:22:21.375Z,28.40
2023-05-31T18:24:48.078Z,28.80
2023-05-31T18:27:16.704Z,29.00
2023-05-31T18:29:43.589Z,29.90
2023-05-31T18:32:10.498Z,31.00
2023-05-31T18:34:37.924Z,31.60
2023-05-31T18:37:05.627Z,32.50
2023-05-31T18:39:32.431Z,33.20
2023-05-31T18:41:59.149Z,33.80
2023-05-31T18:44:26.022Z,34.20
2023-05-31T18:46:53.894Z,34.30
2023-05-31T18:49:20.981Z,35.00
2023-05-31T18:51:48.404Z,35.40
2023-05-31T18:54:16.801Z,35.60
2023-05-31T18:56:45.427Z,35.90
2023-05-31T18:59:15.109Z,36.40
2023-05-31T19:01:42.316Z,36.60
2023-05-31T19:04:09.881Z,36.90
2023-05-31T19:06:38.042Z,37.30
2023-05-31T19:09:05.680Z,38.30
2023-05-31T19:11:33.256Z,38.80
2023-05-31T19:14:00.250Z,39.50
2023-05-31T19:16:26.997Z,40.20
2023-05-31T19:18:53.779Z,40.10
2023-05-31T19:21:20.659Z,40.40
2023-05-31T19:23:47.470Z,40.60
2023-05-31T19:26:18.846Z,40.50
2023-05-31T19:28:45.823Z,40.70
2023-05-31T19:31:12.694Z,41.50
2023-05-31T19:33:39.503Z,41.70
2023-05-31T19:36:06.449Z,41.40
2023-05-31T19:38:33.510Z,41.60
2023-05-31T19:41:00.650Z,41.60
2023-05-31T19:43:27.595Z,41.60
2023-05-31T19:45:54.651Z,41.90
2023-05-31T19:48:21.435Z,41.80
2023-05-31T19:50:48.256Z,41.70
2023-05-31T19:53:14.991Z,42.10
2023-05-31T19:55:43.803Z,42.50
2023-05-31T19:58:11.461Z,42.90
2023-05-31T20:00:38.325Z,43.20
2023-05-31T20:03:06.097Z,43.20
2023-05-31T20:05:32.987Z,43.20
2023-05-31T20:07:59.718Z,43.40
2023-05-31T20:10:26.441Z,43.30
2023-05-31T20:12:53.272Z,43.40
2023-05-31T20:15:20.545Z,43.50
2023-05-31T20:17:47.394Z,43.60
2023-05-31T20:20:14.740Z,43.80
2023-05-31T20:22:41.521Z,43.90
2023-05-31T20:25:08.699Z,44.00
2023-05-31T20:27:35.483Z,44.30
2023-05-31T20:30:02.637Z,44.30
2023-05-31T20:32:29.493Z,44.60
2023-05-31T20:34:56.559Z,44.80
2023-05-31T20:37:23.260Z,44.80
2023-05-31T20:39:49.979Z,45.20
2023-05-31T20:42:16.709Z,45.40
2023-05-31T20:44:44.668Z,45.40
2023-05-31T20:47:11.977Z,45.70
2023-05-31T20:49:38.782Z,45.90
2023-05-31T20:52:11.957Z,46.10
2023-05-31T20:54:43.448Z,46.30
2023-05-31T20:57:10.868Z,46.30
2023-05-31T20:59:38.101Z,46.30
2023-05-31T21:02:05.345Z,46.60
2023-05-31T21:04:32.419Z,46.70
2023-05-31T21:06:59.569Z,46.90
2023-05-31T21:09:28.358Z,47.40
2023-05-31T21:11:55.662Z,47.50
2023-05-31T21:14:22.469Z,47.60
2023-05-31T21:16:49.421Z,47.70
2023-05-31T21:19:16.288Z,47.80
2023-05-31T21:21:43.078Z,47.90
2023-05-31T21:24:09.900Z,48.00
2023-05-31T21:26:36.641Z,48.20
2023-05-31T21:29:03.404Z,48.40
2023-05-31T21:31:33.379Z,48.40
2023-05-31T21:34:00.804Z,48.50
2023-05-31T21:36:30.024Z,48.80
2023-05-31T21:38:57.025Z,49.10
2023-05-31T21:41:26.945Z,49.50
2023-05-31T21:43:54.791Z,49.70
2023-05-31T21:46:21.703Z,50.40
2023-05-31T21:48:48.470Z,50.70
2023-05-31T21:51:15.383Z,51.20
2023-05-31T21:53:42.125Z,51.50
2023-05-31T21:56:08.964Z,52.00
2023-05-31T21:58:37.859Z,52.50
2023-05-31T22:01:04.726Z,52.90
2023-05-31T22:03:31.909Z,53.10
2023-05-31T22:05:58.703Z,53.40
2023-05-31T22:08:25.538Z,54.30
2023-05-31T22:10:52.332Z,54.90
2023-05-31T22:13:19.111Z,55.30
2023-05-31T22:15:51.340Z,54.90
2023-05-31T22:18:21.306Z,55.50
2023-05-31T22:20:54.729Z,55.70
2023-05-31T22:23:26.276Z,56.00
2023-05-31T22:25:55.257Z,56.30
2023-05-31T22:28:23.165Z,57.10
2023-05-31T22:30:50.110Z,57.00
2023-05-31T22:33:17.071Z,57.50
2023-05-31T22:35:43.786Z,57.50
2023-05-31T22:38:10.599Z,57.50
2023-05-31T22:40:38.804Z,57.90
2023-05-31T22:43:05.541Z,58.20
2023-05-31T22:45:32.373Z,58.20
2023-05-31T22:47:59.687Z,57.90
2023-05-31T22:50:27.956Z,58.00
2023-05-31T22:52:55.140Z,57.80
2023-05-31T22:55:22.074Z,58.50
2023-05-31T22:57:48.822Z,58.80
2023-05-31T23:00:16.087Z,59.50
2023-05-31T23:02:43.885Z,59.40
2023-05-31T23:05:11.962Z,59.50
2023-05-31T23:07:42.486Z,59.20
2023-05-31T23:10:11.865Z,60.60
2023-05-31T23:12:38.738Z,60.80
2023-05-31T23:15:06.477Z,61.00
2023-05-31T23:17:40.104Z,61.20
2023-05-31T23:20:13.145Z,61.30
2023-05-31T23:22:44.898Z,61.20
2023-05-31T23:25:12.747Z,61.80
2023-05-31T23:27:41.206Z,62.10
2023-05-31T23:30:09.837Z,62.30
2023-05-31T23:32:37.560Z,61.90
2023-05-31T23:35:05.355Z,61.30
2023-05-31T23:37:35.319Z,60.90
2023-05-31T23:40:06.231Z,61.00
2023-05-31T23:42:33.819Z,60.50
2023-05-31T23:45:00.900Z,60.80
2023-05-31T23:47:27.761Z,60.70
2023-05-31T23:49:55.565Z,60.70
2023-05-31T23:52:23.017Z,60.90
2023-05-31T23:54:50.198Z,61.40
2023-05-31T23:57:16.935Z,61.80
2023-05-31T23:59:44.681Z,62.50
